sensor_id;sensor_type;location;lat;lon;timestamp;P1;durP1;ratioP1;P2;durP2;ratioP2
33696;SDS011;20031;43.416;23.232;2023-04-06T00:01:12;12.10;;;9.45;;
33696;SDS011;20031;43.416;23.232;2023-04-06T00:03:37;12.18;;;8.88;;
33696;SDS011;20031;43.416;23.232;2023-04-06T00:06:03;13.77;;;9.50;;
33696;SDS011;20031;43.416;23.232;2023-04-06T00:08:29;13.88;;;8.70;;
33696;SDS011;20031;43.416;23.232;2023-04-06T00:10:55;12.48;;;8.68;;
33696;SDS011;20031;43.416;23.232;2023-04-06T00:13:20;13.43;;;8.30;;
33696;SDS011;20031;43.416;23.232;2023-04-06T00:15:46;11.18;;;8.40;;
33696;SDS011;20031;43.416;23.232;2023-04-06T00:18:11;12.60;;;8.73;;
33696;SDS011;20031;43.416;23.232;2023-04-06T00:20:37;12.68;;;8.95;;
33696;SDS011;20031;43.416;23.232;2023-04-06T00:23:02;11.18;;;8.68;;
33696;SDS011;20031;43.416;23.232;2023-04-06T00:25:28;13.13;;;9.30;;
33696;SDS011;20031;43.416;23.232;2023-04-06T00:27:53;20.58;;;11.63;;
33696;SDS011;20031;43.416;23.232;2023-04-06T00:30:19;18.52;;;11.70;;
33696;SDS011;20031;43.416;23.232;2023-04-06T00:32:45;17.52;;;11.30;;
33696;SDS011;20031;43.416;23.232;2023-04-06T00:35:10;13.10;;;9.52;;
33696;SDS011;20031;43.416;23.232;2023-04-06T00:37:36;13.18;;;8.68;;
33696;SDS011;20031;43.416;23.232;2023-04-06T00:40:01;12.60;;;8.38;;
33696;SDS011;20031;43.416;23.232;2023-04-06T00:42:27;9.25;;;7.60;;
33696;SDS011;20031;43.416;23.232;2023-04-06T00:44:53;11.27;;;8.55;;
33696;SDS011;20031;43.416;23.232;2023-04-06T00:47:20;17.58;;;10.15;;
33696;SDS011;20031;43.416;23.232;2023-04-06T00:49:46;16.02;;;10.55;;
33696;SDS011;20031;43.416;23.232;2023-04-06T00:52:12;20.83;;;12.02;;
33696;SDS011;20031;43.416;23.232;2023-04-06T00:54:37;21.20;;;12.43;;
33696;SDS011;20031;43.416;23.232;2023-04-06T00:57:03;21.33;;;12.38;;
33696;SDS011;20031;43.416;23.232;2023-04-06T00:59:28;18.63;;;12.52;;
33696;SDS011;20031;43.416;23.232;2023-04-06T01:01:54;20.27;;;12.48;;
33696;SDS011;20031;43.416;23.232;2023-04-06T01:04:20;18.98;;;10.90;;
33696;SDS011;20031;43.416;23.232;2023-04-06T01:06:48;16.15;;;10.93;;
33696;SDS011;20031;43.416;23.232;2023-04-06T01:09:14;16.30;;;10.98;;
33696;SDS011;20031;43.416;23.232;2023-04-06T01:11:39;17.83;;;10.85;;
33696;SDS011;20031;43.416;23.232;2023-04-06T01:14:05;17.55;;;11.32;;
33696;SDS011;20031;43.416;23.232;2023-04-06T01:16:31;18.73;;;11.43;;
33696;SDS011;20031;43.416;23.232;2023-04-06T01:18:56;17.33;;;10.95;;
33696;SDS011;20031;43.416;23.232;2023-04-06T01:21:22;16.02;;;10.43;;
33696;SDS011;20031;43.416;23.232;2023-04-06T01:23:47;21.80;;;9.68;;
33696;SDS011;20031;43.416;23.232;2023-04-06T01:26:13;17.48;;;10.25;;
33696;SDS011;20031;43.416;23.232;2023-04-06T01:28:38;14.73;;;10.25;;
33696;SDS011;20031;43.416;23.232;2023-04-06T01:31:06;18.05;;;10.30;;
33696;SDS011;20031;43.416;23.232;2023-04-06T01:33:32;15.30;;;10.02;;
33696;SDS011;20031;43.416;23.232;2023-04-06T01:35:58;13.98;;;9.50;;
33696;SDS011;20031;43.416;23.232;2023-04-06T01:38:23;12.48;;;9.65;;
33696;SDS011;20031;43.416;23.232;2023-04-06T01:40:49;15.35;;;9.38;;
33696;SDS011;20031;43.416;23.232;2023-04-06T01:43:15;16.00;;;9.60;;
33696;SDS011;20031;43.416;23.232;2023-04-06T01:45:40;13.18;;;9.25;;
33696;SDS011;20031;43.416;23.232;2023-04-06T01:48:06;17.98;;;9.18;;
33696;SDS011;20031;43.416;23.232;2023-04-06T01:50:32;15.35;;;9.52;;
33696;SDS011;20031;43.416;23.232;2023-04-06T01:52:58;14.60;;;9.40;;
33696;SDS011;20031;43.416;23.232;2023-04-06T01:55:23;14.73;;;9.10;;
33696;SDS011;20031;43.416;23.232;2023-04-06T01:57:48;13.60;;;8.73;;
33696;SDS011;20031;43.416;23.232;2023-04-06T02:00:14;11.57;;;8.93;;
33696;SDS011;20031;43.416;23.232;2023-04-06T02:02:40;12.25;;;8.85;;
33696;SDS011;20031;43.416;23.232;2023-04-06T02:05:07;13.18;;;9.48;;
33696;SDS011;20031;43.416;23.232;2023-04-06T02:07:33;17.65;;;10.02;;
33696;SDS011;20031;43.416;23.232;2023-04-06T02:09:58;15.05;;;10.68;;
33696;SDS011;20031;43.416;23.232;2023-04-06T02:12:24;20.67;;;11.00;;
33696;SDS011;20031;43.416;23.232;2023-04-06T02:14:49;19.80;;;11.32;;
33696;SDS011;20031;43.416;23.232;2023-04-06T02:17:15;18.80;;;10.73;;
33696;SDS011;20031;43.416;23.232;2023-04-06T02:19:41;14.80;;;10.73;;
33696;SDS011;20031;43.416;23.232;2023-04-06T02:22:06;16.35;;;10.38;;
33696;SDS011;20031;43.416;23.232;2023-04-06T02:24:31;15.32;;;10.52;;
33696;SDS011;20031;43.416;23.232;2023-04-06T02:26:57;14.90;;;10.07;;
33696;SDS011;20031;43.416;23.232;2023-04-06T02:29:23;14.98;;;10.35;;
33696;SDS011;20031;43.416;23.232;2023-04-06T02:31:48;13.95;;;9.18;;
33696;SDS011;20031;43.416;23.232;2023-04-06T02:34:14;13.57;;;9.18;;
33696;SDS011;20031;43.416;23.232;2023-04-06T02:36:45;12.50;;;9.15;;
33696;SDS011;20031;43.416;23.232;2023-04-06T02:39:11;16.25;;;9.60;;
33696;SDS011;20031;43.416;23.232;2023-04-06T02:41:37;13.82;;;9.48;;
33696;SDS011;20031;43.416;23.232;2023-04-06T02:44:02;17.08;;;9.88;;
33696;SDS011;20031;43.416;23.232;2023-04-06T02:46:28;16.35;;;9.75;;
33696;SDS011;20031;43.416;23.232;2023-04-06T02:48:54;24.83;;;15.60;;
33696;SDS011;20031;43.416;23.232;2023-04-06T02:51:19;18.90;;;11.70;;
33696;SDS011;20031;43.416;23.232;2023-04-06T02:53:45;23.42;;;11.63;;
33696;SDS011;20031;43.416;23.232;2023-04-06T02:56:11;26.75;;;12.68;;
33696;SDS011;20031;43.416;23.232;2023-04-06T02:58:36;23.10;;;13.25;;
33696;SDS011;20031;43.416;23.232;2023-04-06T03:01:02;24.38;;;13.00;;
33696;SDS011;20031;43.416;23.232;2023-04-06T03:03:28;23.42;;;13.50;;
33696;SDS011;20031;43.416;23.232;2023-04-06T03:05:55;21.20;;;12.68;;
33696;SDS011;20031;43.416;23.232;2023-04-06T03:08:23;19.80;;;12.98;;
33696;SDS011;20031;43.416;23.232;2023-04-06T03:10:49;24.80;;;12.50;;
33696;SDS011;20031;43.416;23.232;2023-04-06T03:13:15;25.15;;;13.30;;
33696;SDS011;20031;43.416;23.232;2023-04-06T03:15:40;22.15;;;12.48;;
33696;SDS011;20031;43.416;23.232;2023-04-06T03:18:06;22.33;;;13.85;;
33696;SDS011;20031;43.416;23.232;2023-04-06T03:20:31;21.65;;;13.07;;
33696;SDS011;20031;43.416;23.232;2023-04-06T03:22:57;24.90;;;13.27;;
33696;SDS011;20031;43.416;23.232;2023-04-06T03:25:23;22.95;;;12.20;;
33696;SDS011;20031;43.416;23.232;2023-04-06T03:27:48;28.55;;;12.65;;
33696;SDS011;20031;43.416;23.232;2023-04-06T03:30:14;24.05;;;11.68;;
33696;SDS011;20031;43.416;23.232;2023-04-06T03:32:42;23.92;;;11.55;;
33696;SDS011;20031;43.416;23.232;2023-04-06T03:35:08;28.23;;;12.23;;
33696;SDS011;20031;43.416;23.232;2023-04-06T03:37:34;24.05;;;12.45;;
33696;SDS011;20031;43.416;23.232;2023-04-06T03:39:59;36.67;;;16.75;;
33696;SDS011;20031;43.416;23.232;2023-04-06T03:42:25;28.13;;;14.60;;
33696;SDS011;20031;43.416;23.232;2023-04-06T03:44:51;28.77;;;15.20;;
33696;SDS011;20031;43.416;23.232;2023-04-06T03:47:17;24.50;;;13.43;;
33696;SDS011;20031;43.416;23.232;2023-04-06T03:49:43;30.95;;;14.35;;
33696;SDS011;20031;43.416;23.232;2023-04-06T03:52:08;24.15;;;12.10;;
33696;SDS011;20031;43.416;23.232;2023-04-06T03:54:34;23.08;;;12.25;;
33696;SDS011;20031;43.416;23.232;2023-04-06T03:57:00;28.95;;;12.50;;
33696;SDS011;20031;43.416;23.232;2023-04-06T03:59:25;27.15;;;12.40;;
33696;SDS011;20031;43.416;23.232;2023-04-06T04:01:51;13.35;;;7.72;;
33696;SDS011;20031;43.416;23.232;2023-04-06T04:04:16;16.52;;;6.85;;
33696;SDS011;20031;43.416;23.232;2023-04-06T04:06:42;11.75;;;6.35;;
33696;SDS011;20031;43.416;23.232;2023-04-06T04:09:07;11.73;;;7.05;;
33696;SDS011;20031;43.416;23.232;2023-04-06T04:11:32;17.65;;;8.90;;
33696;SDS011;20031;43.416;23.232;2023-04-06T04:13:58;9.90;;;5.57;;
33696;SDS011;20031;43.416;23.232;2023-04-06T04:16:23;14.73;;;7.63;;
33696;SDS011;20031;43.416;23.232;2023-04-06T04:18:49;26.98;;;11.63;;
33696;SDS011;20031;43.416;23.232;2023-04-06T04:21:14;17.40;;;8.85;;
33696;SDS011;20031;43.416;23.232;2023-04-06T04:23:40;10.60;;;6.90;;
33696;SDS011;20031;43.416;23.232;2023-04-06T04:26:05;12.05;;;6.78;;
33696;SDS011;20031;43.416;23.232;2023-04-06T04:28:31;10.00;;;6.55;;
33696;SDS011;20031;43.416;23.232;2023-04-06T04:30:56;11.02;;;5.75;;
33696;SDS011;20031;43.416;23.232;2023-04-06T04:33:22;13.18;;;7.05;;
33696;SDS011;20031;43.416;23.232;2023-04-06T04:35:47;15.00;;;5.55;;
33696;SDS011;20031;43.416;23.232;2023-04-06T04:38:13;14.88;;;5.55;;
33696;SDS011;20031;43.416;23.232;2023-04-06T04:40:38;10.25;;;5.55;;
33696;SDS011;20031;43.416;23.232;2023-04-06T04:43:04;12.15;;;6.70;;
33696;SDS011;20031;43.416;23.232;2023-04-06T04:45:29;14.77;;;5.60;;
33696;SDS011;20031;43.416;23.232;2023-04-06T04:47:55;10.95;;;5.25;;
33696;SDS011;20031;43.416;23.232;2023-04-06T04:50:20;16.65;;;5.90;;
33696;SDS011;20031;43.416;23.232;2023-04-06T04:52:46;16.23;;;7.60;;
33696;SDS011;20031;43.416;23.232;2023-04-06T04:55:11;14.40;;;6.25;;
33696;SDS011;20031;43.416;23.232;2023-04-06T04:57:37;20.25;;;8.13;;
33696;SDS011;20031;43.416;23.232;2023-04-06T05:00:02;15.55;;;6.53;;
33696;SDS011;20031;43.416;23.232;2023-04-06T05:02:28;15.88;;;8.15;;
33696;SDS011;20031;43.416;23.232;2023-04-06T05:04:54;20.00;;;8.52;;
33696;SDS011;20031;43.416;23.232;2023-04-06T05:07:19;26.80;;;10.90;;
33696;SDS011;20031;43.416;23.232;2023-04-06T05:09:46;19.55;;;7.57;;
33696;SDS011;20031;43.416;23.232;2023-04-06T05:12:11;13.25;;;7.15;;
33696;SDS011;20031;43.416;23.232;2023-04-06T05:14:37;27.15;;;11.65;;
33696;SDS011;20031;43.416;23.232;2023-04-06T05:17:02;25.00;;;9.50;;
33696;SDS011;20031;43.416;23.232;2023-04-06T05:19:29;23.17;;;11.10;;
33696;SDS011;20031;43.416;23.232;2023-04-06T05:21:55;20.30;;;8.15;;
33696;SDS011;20031;43.416;23.232;2023-04-06T05:24:20;26.45;;;11.43;;
33696;SDS011;20031;43.416;23.232;2023-04-06T05:26:46;24.50;;;10.27;;
33696;SDS011;20031;43.416;23.232;2023-04-06T05:29:11;17.83;;;9.55;;
33696;SDS011;20031;43.416;23.232;2023-04-06T05:31:37;18.85;;;9.15;;
33696;SDS011;20031;43.416;23.232;2023-04-06T05:34:02;27.10;;;10.75;;
33696;SDS011;20031;43.416;23.232;2023-04-06T05:36:28;19.15;;;8.82;;
33696;SDS011;20031;43.416;23.232;2023-04-06T05:38:53;30.50;;;14.73;;
33696;SDS011;20031;43.416;23.232;2023-04-06T05:41:20;20.58;;;10.05;;
33696;SDS011;20031;43.416;23.232;2023-04-06T05:43:46;14.45;;;7.72;;
33696;SDS011;20031;43.416;23.232;2023-04-06T05:46:12;28.65;;;7.82;;
33696;SDS011;20031;43.416;23.232;2023-04-06T05:48:37;14.77;;;7.25;;
33696;SDS011;20031;43.416;23.232;2023-04-06T05:51:02;16.15;;;8.23;;
33696;SDS011;20031;43.416;23.232;2023-04-06T05:53:31;33.28;;;9.88;;
33696;SDS011;20031;43.416;23.232;2023-04-06T05:55:57;25.83;;;11.15;;
33696;SDS011;20031;43.416;23.232;2023-04-06T05:58:22;10.82;;;7.57;;
33696;SDS011;20031;43.416;23.232;2023-04-06T06:00:48;31.42;;;14.60;;
33696;SDS011;20031;43.416;23.232;2023-04-06T06:03:13;12.52;;;6.90;;
33696;SDS011;20031;43.416;23.232;2023-04-06T06:05:40;23.70;;;11.52;;
33696;SDS011;20031;43.416;23.232;2023-04-06T06:08:05;19.90;;;9.55;;
33696;SDS011;20031;43.416;23.232;2023-04-06T06:10:31;18.02;;;9.52;;
33696;SDS011;20031;43.416;23.232;2023-04-06T06:12:56;16.40;;;7.63;;
33696;SDS011;20031;43.416;23.232;2023-04-06T06:15:22;19.52;;;8.13;;
33696;SDS011;20031;43.416;23.232;2023-04-06T06:17:47;14.40;;;7.28;;
33696;SDS011;20031;43.416;23.232;2023-04-06T06:20:13;15.75;;;7.25;;
33696;SDS011;20031;43.416;23.232;2023-04-06T06:22:38;16.45;;;8.85;;
33696;SDS011;20031;43.416;23.232;2023-04-06T06:25:05;13.80;;;5.72;;
33696;SDS011;20031;43.416;23.232;2023-04-06T06:27:30;14.65;;;5.88;;
33696;SDS011;20031;43.416;23.232;2023-04-06T06:29:56;21.80;;;8.10;;
33696;SDS011;20031;43.416;23.232;2023-04-06T06:32:21;13.95;;;6.63;;
33696;SDS011;20031;43.416;23.232;2023-04-06T06:34:47;15.45;;;7.57;;
33696;SDS011;20031;43.416;23.232;2023-04-06T06:37:12;9.15;;;5.05;;
33696;SDS011;20031;43.416;23.232;2023-04-06T06:39:38;13.05;;;6.22;;
33696;SDS011;20031;43.416;23.232;2023-04-06T06:42:03;14.18;;;7.88;;
33696;SDS011;20031;43.416;23.232;2023-04-06T06:44:29;8.88;;;5.55;;
33696;SDS011;20031;43.416;23.232;2023-04-06T06:46:54;14.23;;;7.60;;
33696;SDS011;20031;43.416;23.232;2023-04-06T06:49:20;15.23;;;6.65;;
33696;SDS011;20031;43.416;23.232;2023-04-06T06:51:45;14.82;;;7.65;;
33696;SDS011;20031;43.416;23.232;2023-04-06T06:54:11;15.50;;;6.22;;
33696;SDS011;20031;43.416;23.232;2023-04-06T06:56:37;13.13;;;6.18;;
33696;SDS011;20031;43.416;23.232;2023-04-06T06:59:04;9.27;;;5.03;;
33696;SDS011;20031;43.416;23.232;2023-04-06T07:01:30;14.60;;;6.75;;
33696;SDS011;20031;43.416;23.232;2023-04-06T07:03:57;12.38;;;6.43;;
33696;SDS011;20031;43.416;23.232;2023-04-06T07:06:22;18.23;;;6.05;;
33696;SDS011;20031;43.416;23.232;2023-04-06T07:08:48;12.18;;;6.38;;
33696;SDS011;20031;43.416;23.232;2023-04-06T07:11:13;13.70;;;5.47;;
33696;SDS011;20031;43.416;23.232;2023-04-06T07:13:39;8.10;;;5.15;;
33696;SDS011;20031;43.416;23.232;2023-04-06T07:16:04;13.00;;;5.30;;
33696;SDS011;20031;43.416;23.232;2023-04-06T07:18:30;14.82;;;6.70;;
33696;SDS011;20031;43.416;23.232;2023-04-06T07:20:55;11.45;;;5.65;;
33696;SDS011;20031;43.416;23.232;2023-04-06T07:23:21;9.95;;;3.97;;
33696;SDS011;20031;43.416;23.232;2023-04-06T07:25:46;8.38;;;4.18;;
33696;SDS011;20031;43.416;23.232;2023-04-06T07:28:12;9.48;;;5.40;;
33696;SDS011;20031;43.416;23.232;2023-04-06T07:30:37;10.45;;;4.85;;
33696;SDS011;20031;43.416;23.232;2023-04-06T07:33:03;6.88;;;4.35;;
33696;SDS011;20031;43.416;23.232;2023-04-06T07:35:30;8.77;;;4.93;;
33696;SDS011;20031;43.416;23.232;2023-04-06T07:37:56;10.65;;;4.95;;
33696;SDS011;20031;43.416;23.232;2023-04-06T07:40:21;12.25;;;5.70;;
33696;SDS011;20031;43.416;23.232;2023-04-06T07:42:47;10.60;;;5.05;;
33696;SDS011;20031;43.416;23.232;2023-04-06T07:45:13;7.97;;;4.28;;
33696;SDS011;20031;43.416;23.232;2023-04-06T07:47:38;12.30;;;4.85;;
33696;SDS011;20031;43.416;23.232;2023-04-06T07:50:04;9.45;;;4.82;;
33696;SDS011;20031;43.416;23.232;2023-04-06T07:52:30;8.23;;;4.70;;
33696;SDS011;20031;43.416;23.232;2023-04-06T07:54:57;8.10;;;4.85;;
33696;SDS011;20031;43.416;23.232;2023-04-06T07:57:23;16.38;;;6.90;;
33696;SDS011;20031;43.416;23.232;2023-04-06T07:59:48;17.13;;;5.40;;
33696;SDS011;20031;43.416;23.232;2023-04-06T08:02:14;8.55;;;5.18;;
33696;SDS011;20031;43.416;23.232;2023-04-06T08:04:40;9.00;;;4.57;;
33696;SDS011;20031;43.416;23.232;2023-04-06T08:07:05;10.45;;;4.70;;
33696;SDS011;20031;43.416;23.232;2023-04-06T08:09:31;10.25;;;4.90;;
33696;SDS011;20031;43.416;23.232;2023-04-06T08:11:57;17.25;;;8.27;;
33696;SDS011;20031;43.416;23.232;2023-04-06T08:14:22;18.27;;;7.18;;
33696;SDS011;20031;43.416;23.232;2023-04-06T08:16:48;13.68;;;4.88;;
33696;SDS011;20031;43.416;23.232;2023-04-06T08:19:13;11.85;;;5.53;;
33696;SDS011;20031;43.416;23.232;2023-04-06T08:21:42;7.47;;;4.43;;
33696;SDS011;20031;43.416;23.232;2023-04-06T08:24:07;7.97;;;4.43;;
33696;SDS011;20031;43.416;23.232;2023-04-06T08:26:33;13.65;;;5.60;;
33696;SDS011;20031;43.416;23.232;2023-04-06T08:28:58;11.95;;;5.95;;
33696;SDS011;20031;43.416;23.232;2023-04-06T08:31:24;11.90;;;5.47;;
33696;SDS011;20031;43.416;23.232;2023-04-06T08:33:50;12.52;;;5.15;;
33696;SDS011;20031;43.416;23.232;2023-04-06T08:36:15;9.15;;;4.47;;
33696;SDS011;20031;43.416;23.232;2023-04-06T08:38:41;11.93;;;5.10;;
33696;SDS011;20031;43.416;23.232;2023-04-06T08:41:11;11.82;;;4.75;;
33696;SDS011;20031;43.416;23.232;2023-04-06T08:43:44;10.95;;;5.30;;
33696;SDS011;20031;43.416;23.232;2023-04-06T08:46:12;6.40;;;4.03;;
33696;SDS011;20031;43.416;23.232;2023-04-06T08:48:39;11.10;;;4.38;;
33696;SDS011;20031;43.416;23.232;2023-04-06T08:51:06;8.80;;;3.75;;
33696;SDS011;20031;43.416;23.232;2023-04-06T08:53:33;15.57;;;5.43;;
33696;SDS011;20031;43.416;23.232;2023-04-06T08:55:58;10.38;;;4.80;;
33696;SDS011;20031;43.416;23.232;2023-04-06T08:58:26;9.98;;;4.95;;
33696;SDS011;20031;43.416;23.232;2023-04-06T09:00:55;14.82;;;4.97;;
33696;SDS011;20031;43.416;23.232;2023-04-06T09:03:22;15.02;;;4.85;;
33696;SDS011;20031;43.416;23.232;2023-04-06T09:05:49;9.77;;;4.50;;
33696;SDS011;20031;43.416;23.232;2023-04-06T09:08:15;9.23;;;4.80;;
33696;SDS011;20031;43.416;23.232;2023-04-06T09:10:41;7.93;;;4.20;;
33696;SDS011;20031;43.416;23.232;2023-04-06T09:13:06;13.60;;;5.07;;
33696;SDS011;20031;43.416;23.232;2023-04-06T09:15:33;14.48;;;5.00;;
33696;SDS011;20031;43.416;23.232;2023-04-06T09:17:59;13.38;;;5.63;;
33696;SDS011;20031;43.416;23.232;2023-04-06T09:20:25;18.98;;;9.88;;
33696;SDS011;20031;43.416;23.232;2023-04-06T09:22:53;11.90;;;5.65;;
33696;SDS011;20031;43.416;23.232;2023-04-06T09:25:20;11.73;;;5.15;;
33696;SDS011;20031;43.416;23.232;2023-04-06T09:27:48;5.75;;;3.70;;
33696;SDS011;20031;43.416;23.232;2023-04-06T09:30:22;10.60;;;5.05;;
33696;SDS011;20031;43.416;23.232;2023-04-06T09:32:50;9.15;;;4.20;;
33696;SDS011;20031;43.416;23.232;2023-04-06T09:35:22;6.85;;;3.50;;
33696;SDS011;20031;43.416;23.232;2023-04-06T09:37:51;11.18;;;5.28;;
33696;SDS011;20031;43.416;23.232;2023-04-06T09:40:17;17.05;;;5.68;;
33696;SDS011;20031;43.416;23.232;2023-04-06T09:42:47;7.80;;;4.72;;
33696;SDS011;20031;43.416;23.232;2023-04-06T09:45:15;16.48;;;5.13;;
33696;SDS011;20031;43.416;23.232;2023-04-06T09:47:42;12.25;;;5.10;;
33696;SDS011;20031;43.416;23.232;2023-04-06T09:50:09;16.92;;;6.25;;
33696;SDS011;20031;43.416;23.232;2023-04-06T09:52:41;13.07;;;5.13;;
33696;SDS011;20031;43.416;23.232;2023-04-06T09:55:11;9.77;;;4.70;;
33696;SDS011;20031;43.416;23.232;2023-04-06T09:57:44;11.80;;;6.60;;
33696;SDS011;20031;43.416;23.232;2023-04-06T10:00:22;8.80;;;5.38;;
33696;SDS011;20031;43.416;23.232;2023-04-06T10:02:51;9.25;;;4.60;;
33696;SDS011;20031;43.416;23.232;2023-04-06T10:08:09;9.65;;;4.47;;
33696;SDS011;20031;43.416;23.232;2023-04-06T10:10:35;12.07;;;5.45;;
33696;SDS011;20031;43.416;23.232;2023-04-06T10:13:02;12.65;;;6.38;;
33696;SDS011;20031;43.416;23.232;2023-04-06T10:15:28;21.38;;;4.90;;
33696;SDS011;20031;43.416;23.232;2023-04-06T10:18:00;8.98;;;4.75;;
33696;SDS011;20031;43.416;23.232;2023-04-06T10:20:30;11.70;;;5.25;;
33696;SDS011;20031;43.416;23.232;2023-04-06T10:26:03;9.05;;;4.55;;
33696;SDS011;20031;43.416;23.232;2023-04-06T10:28:33;13.30;;;5.18;;
33696;SDS011;20031;43.416;23.232;2023-04-06T10:31:01;11.30;;;4.78;;
33696;SDS011;20031;43.416;23.232;2023-04-06T10:33:30;10.35;;;4.80;;
33696;SDS011;20031;43.416;23.232;2023-04-06T10:35:56;6.65;;;4.00;;
33696;SDS011;20031;43.416;23.232;2023-04-06T10:38:32;15.20;;;5.80;;
33696;SDS011;20031;43.416;23.232;2023-04-06T10:41:06;9.77;;;4.53;;
33696;SDS011;20031;43.416;23.232;2023-04-06T10:43:33;12.13;;;5.65;;
33696;SDS011;20031;43.416;23.232;2023-04-06T10:46:03;13.05;;;5.10;;
33696;SDS011;20031;43.416;23.232;2023-04-06T10:48:43;8.68;;;3.85;;
33696;SDS011;20031;43.416;23.232;2023-04-06T10:51:12;6.50;;;3.83;;
33696;SDS011;20031;43.416;23.232;2023-04-06T10:53:43;12.13;;;5.15;;
33696;SDS011;20031;43.416;23.232;2023-04-06T10:56:12;14.98;;;4.70;;
33696;SDS011;20031;43.416;23.232;2023-04-06T10:58:43;10.63;;;4.88;;
33696;SDS011;20031;43.416;23.232;2023-04-06T11:01:13;12.25;;;3.25;;
33696;SDS011;20031;43.416;23.232;2023-04-06T11:03:52;8.50;;;4.88;;
33696;SDS011;20031;43.416;23.232;2023-04-06T11:06:24;10.25;;;5.40;;
33696;SDS011;20031;43.416;23.232;2023-04-06T11:08:51;10.93;;;5.55;;
33696;SDS011;20031;43.416;23.232;2023-04-06T11:11:19;10.63;;;4.90;;
33696;SDS011;20031;43.416;23.232;2023-04-06T11:13:46;10.35;;;5.55;;
33696;SDS011;20031;43.416;23.232;2023-04-06T11:16:15;12.35;;;5.75;;
33696;SDS011;20031;43.416;23.232;2023-04-06T11:24:19;10.90;;;5.13;;
33696;SDS011;20031;43.416;23.232;2023-04-06T11:26:50;10.05;;;4.90;;
33696;SDS011;20031;43.416;23.232;2023-04-06T11:29:19;9.80;;;5.38;;
33696;SDS011;20031;43.416;23.232;2023-04-06T11:31:46;10.43;;;4.80;;
33696;SDS011;20031;43.416;23.232;2023-04-06T11:34:17;18.00;;;5.40;;
33696;SDS011;20031;43.416;23.232;2023-04-06T11:36:45;14.27;;;6.03;;
33696;SDS011;20031;43.416;23.232;2023-04-06T11:39:12;11.73;;;6.20;;
33696;SDS011;20031;43.416;23.232;2023-04-06T11:41:39;22.63;;;8.90;;
33696;SDS011;20031;43.416;23.232;2023-04-06T11:44:05;18.50;;;9.20;;
33696;SDS011;20031;43.416;23.232;2023-04-06T11:46:31;10.20;;;5.15;;
33696;SDS011;20031;43.416;23.232;2023-04-06T11:49:00;16.67;;;7.95;;
33696;SDS011;20031;43.416;23.232;2023-04-06T11:51:27;12.15;;;6.78;;
33696;SDS011;20031;43.416;23.232;2023-04-06T11:53:53;12.57;;;6.85;;
33696;SDS011;20031;43.416;23.232;2023-04-06T11:56:23;9.13;;;4.65;;
33696;SDS011;20031;43.416;23.232;2023-04-06T11:58:54;12.95;;;5.97;;
33696;SDS011;20031;43.416;23.232;2023-04-06T12:01:20;17.90;;;7.75;;
33696;SDS011;20031;43.416;23.232;2023-04-06T12:03:45;8.15;;;4.53;;
33696;SDS011;20031;43.416;23.232;2023-04-06T12:06:11;9.52;;;5.40;;
33696;SDS011;20031;43.416;23.232;2023-04-06T12:08:36;34.15;;;7.80;;
33696;SDS011;20031;43.416;23.232;2023-04-06T12:11:02;8.23;;;4.15;;
33696;SDS011;20031;43.416;23.232;2023-04-06T12:13:27;11.48;;;4.80;;
33696;SDS011;20031;43.416;23.232;2023-04-06T12:15:52;10.10;;;5.13;;
33696;SDS011;20031;43.416;23.232;2023-04-06T12:18:18;9.43;;;5.15;;
33696;SDS011;20031;43.416;23.232;2023-04-06T12:20:43;8.80;;;4.97;;
33696;SDS011;20031;43.416;23.232;2023-04-06T12:23:09;10.40;;;5.57;;
33696;SDS011;20031;43.416;23.232;2023-04-06T12:25:34;16.63;;;4.97;;
33696;SDS011;20031;43.416;23.232;2023-04-06T12:28:00;13.73;;;6.68;;
33696;SDS011;20031;43.416;23.232;2023-04-06T12:30:26;8.65;;;5.40;;
33696;SDS011;20031;43.416;23.232;2023-04-06T12:32:51;16.95;;;5.78;;
33696;SDS011;20031;43.416;23.232;2023-04-06T12:35:17;17.83;;;9.10;;
33696;SDS011;20031;43.416;23.232;2023-04-06T12:37:42;13.32;;;6.70;;
33696;SDS011;20031;43.416;23.232;2023-04-06T12:40:08;13.98;;;6.07;;
33696;SDS011;20031;43.416;23.232;2023-04-06T12:42:35;11.35;;;5.50;;
33696;SDS011;20031;43.416;23.232;2023-04-06T12:45:01;8.40;;;5.38;;
33696;SDS011;20031;43.416;23.232;2023-04-06T12:47:28;20.52;;;8.65;;
33696;SDS011;20031;43.416;23.232;2023-04-06T12:49:53;12.05;;;7.50;;
33696;SDS011;20031;43.416;23.232;2023-04-06T12:52:19;22.85;;;8.70;;
33696;SDS011;20031;43.416;23.232;2023-04-06T12:54:45;23.50;;;12.25;;
33696;SDS011;20031;43.416;23.232;2023-04-06T12:57:11;13.55;;;6.28;;
33696;SDS011;20031;43.416;23.232;2023-04-06T12:59:36;17.25;;;8.32;;
33696;SDS011;20031;43.416;23.232;2023-04-06T13:02:03;17.40;;;7.65;;
33696;SDS011;20031;43.416;23.232;2023-04-06T13:04:28;18.42;;;9.10;;
33696;SDS011;20031;43.416;23.232;2023-04-06T13:06:54;13.10;;;6.78;;
33696;SDS011;20031;43.416;23.232;2023-04-06T13:09:19;26.98;;;12.32;;
33696;SDS011;20031;43.416;23.232;2023-04-06T13:11:45;10.60;;;5.43;;
33696;SDS011;20031;43.416;23.232;2023-04-06T13:14:11;11.90;;;5.70;;
33696;SDS011;20031;43.416;23.232;2023-04-06T13:16:36;12.30;;;7.45;;
33696;SDS011;20031;43.416;23.232;2023-04-06T13:19:02;9.30;;;4.88;;
33696;SDS011;20031;43.416;23.232;2023-04-06T13:21:28;15.60;;;8.43;;
33696;SDS011;20031;43.416;23.232;2023-04-06T13:23:53;17.83;;;7.45;;
33696;SDS011;20031;43.416;23.232;2023-04-06T13:26:18;15.25;;;7.93;;
33696;SDS011;20031;43.416;23.232;2023-04-06T13:28:44;18.27;;;7.55;;
33696;SDS011;20031;43.416;23.232;2023-04-06T13:31:10;14.07;;;7.63;;
33696;SDS011;20031;43.416;23.232;2023-04-06T13:33:36;15.73;;;6.82;;
33696;SDS011;20031;43.416;23.232;2023-04-06T13:36:02;17.88;;;8.32;;
33696;SDS011;20031;43.416;23.232;2023-04-06T13:38:27;15.60;;;8.23;;
33696;SDS011;20031;43.416;23.232;2023-04-06T13:40:53;15.20;;;7.95;;
33696;SDS011;20031;43.416;23.232;2023-04-06T13:43:19;26.30;;;9.32;;
33696;SDS011;20031;43.416;23.232;2023-04-06T13:45:52;18.20;;;7.25;;
33696;SDS011;20031;43.416;23.232;2023-04-06T13:48:19;21.92;;;8.52;;
33696;SDS011;20031;43.416;23.232;2023-04-06T13:50:45;12.60;;;7.13;;
33696;SDS011;20031;43.416;23.232;2023-04-06T13:53:11;16.98;;;7.82;;
33696;SDS011;20031;43.416;23.232;2023-04-06T13:55:36;24.60;;;8.55;;
33696;SDS011;20031;43.416;23.232;2023-04-06T13:58:02;13.48;;;7.50;;
33696;SDS011;20031;43.416;23.232;2023-04-06T14:00:27;10.68;;;6.53;;
33696;SDS011;20031;43.416;23.232;2023-04-06T14:02:56;18.73;;;7.90;;
33696;SDS011;20031;43.416;23.232;2023-04-06T14:05:21;20.92;;;9.40;;
33696;SDS011;20031;43.416;23.232;2023-04-06T14:07:48;15.15;;;7.90;;
33696;SDS011;20031;43.416;23.232;2023-04-06T14:10:14;13.27;;;6.28;;
33696;SDS011;20031;43.416;23.232;2023-04-06T14:12:43;13.13;;;7.28;;
33696;SDS011;20031;43.416;23.232;2023-04-06T14:15:10;14.88;;;7.40;;
33696;SDS011;20031;43.416;23.232;2023-04-06T14:17:37;12.85;;;6.85;;
33696;SDS011;20031;43.416;23.232;2023-04-06T14:20:03;13.77;;;7.55;;
33696;SDS011;20031;43.416;23.232;2023-04-06T14:22:29;15.50;;;9.90;;
33696;SDS011;20031;43.416;23.232;2023-04-06T14:24:54;14.02;;;7.57;;
33696;SDS011;20031;43.416;23.232;2023-04-06T14:27:20;22.08;;;8.38;;